Tiempo atmosférico en la estación meteorológica de Pedraza, Segovia (1107 m.)



Fecha
DESCASC
Temp. máxima en grados centígrados (hora)
DESCASC
Temp. mínima en grados centígrados (hora)
DESCASC
Temp. media en grados centígrados
DESCASC
Racha de viento máxima en m/sg (hora)
DESCASC
Velocidad máxima media en intervalos de 10 minutos(hora)
DESCASC
Precipitaciones diarias en mm
DESCASC
Precipitaciones de 00:00 a 06:00 en mm
DESCASC
Precipitaciones de 06:00 a 12:00 en mm
DESCASC
Precipitaciones de 12:00 a 18:00 en mm
DESCASC
Precipitaciones de 18:00 a 24:00 en mm
DESCASC
19-09-2019 23.4 (15:00) 12 (00:00) 17.7 9.72 (18:30) 6.39 (18:30) 1.8 0 0 0 1.8
16-10-2019 17.6 (17:10) 5.4 (00:00) 11.5 9.17 (15:00) 5 (14:50) 0 0 0 0 0
15-10-2019 11.8 (17:10) 3.9 (00:00) 7.9 11.94 (02:50) 6.11 (01:50) 0 0 0 0 0
14-10-2019 18.4 (00:00) 5.1 (00:00) 11.7 16.67 (17:20) 10 (17:20) 7 0 0 2.4 4.6
13-10-2019 22.8 (16:10) 14.2 (00:00) 18.5 15.28 (00:40) 9.44 (04:00) 0 0 0 0 0
12-10-2019 24.5 (15:10) 16 (00:00) 20.3 18.61 (14:50) 10.28 (23:20) 0 0 0 0 0
10-10-2019 24.2 (18:30) 7.5 (00:00) 15.9 8.33 (14:50) 4.44 (08:40) 0 0 0 0 0
09-10-2019 22.1 (16:50) 10.5 (00:00) 16.3 7.22 (06:30) 3.89 (06:30) 0 0 0 0 0
08-10-2019 27.5 (16:10) 12.4 (00:00) 19.9 8.89 (15:20) 5 (16:20) 0 0 0 0 0
07-10-2019 24.4 (17:20) 9.6 (00:00) 17 6.11 (13:40) 3.89 (17:50) 0 0 0 0 0
06-10-2019 22.6 (16:20) 8.2 (00:00) 15.4 8.06 (17:50) 5 (14:20) 0 0 0 0 0
05-10-2019 24.4 (16:40) 9 (08:30) 16.7 7.5 (17:10) 4.44 (17:10) 0 0 0 0 0
04-10-2019 22.5 (16:10) 9 (00:00) 15.8 9.17 (16:50) 5.83 (16:50) 0 0 0 0 0
03-10-2019 22.1 (17:30) 7.5 (00:00) 14.8 8.33 (15:40) 5 (15:20) 0 0 0 0 0
02-10-2019 18.2 (18:20) 8.3 (00:00) 13.3 7.78 (08:00) 4.44 (08:00) 0 0 0 0 0
01-10-2019 21.1 (17:00) 12.9 (00:00) 17 11.67 (18:50) 6.67 (16:00) 0 0 0 0 0
30-09-2019 27.2 (16:50) 9.5 (00:00) 18.4 8.33 (16:40) 4.44 (15:30) 0 0 0 0 0
29-09-2019 25.7 (16:50) 12.9 (00:00) 19.3 9.72 (13:10) 6.11 (13:20) 0 0 0 0 0
28-09-2019 26.1 (17:10) 8.7 (00:00) 17.4 6.39 (17:20) 3.89 (15:40) 0 0 0 0 0
27-09-2019 23.6 (16:40) 9.3 (00:00) 16.5 9.17 (16:30) 5.28 (16:30) 0 0 0 0 0
26-09-2019 24.8 (16:50) 9.4 (00:00) 17.1 8.89 (16:00) 5.56 (16:00) 0 0 0 0 0
25-09-2019 19.1 (16:20) 9.3 (00:00) 14.2 8.89 (16:00) 4.17 (02:30) 0 0 0 0 0
24-09-2019 19.4 (15:00) 11 (00:00) 15.2 10 (14:40) 6.39 (14:40) 1.4 0 0 0.8 0.6
23-09-2019 21.1 (17:40) 7.1 (00:00) 14.1 8.61 (17:00) 5 (15:40) 0 0 0 0 0
20-09-2019 22.7 (17:00) 13.1 (00:00) 17.9 16.11 (21:00) 10.83 (21:00) 3.2 0 0 0 3.2
18-09-2019 23.5 (18:30) 12.5 (00:00) 18 6.94 (15:30) 3.89 (15:30) 0.2 0.2 0 0 0
17-10-2019 18.1 (17:40) 6.8 (00:00) 12.5 11.11 (16:10) 6.67 (16:10) 1.8 0.4 1.4 0 0
22-09-2019 17.3 (16:10) 9.7 (00:00) 13.5 12.22 (04:50) 7.5 (04:50) 1.4 0.8 0.4 0.2 0
21-09-2019 18.8 (13:30) 12.4 (00:00) 15.6 10.83 (16:30) 7.22 (17:40) 1.4 1.2 0 0.2 0

Gráficas

Temp. máximas Temp. mínimas Temp. medias Precipitaciones Rachas de viento máximas Velocidades máximas media en intervalos de 10 minutos

Datos horarios

Fecha y hora oficial Temperatura (ºC) Velocidad del viento (km/h) Dirección del viento Racha (km/h) Dirección de racha Precipitación (mm) Presión (hPa) Tendencia (hPa) Humedad (%)
2019-10-17 23:00:00 13.9 6 Sur 17 Sudoeste 0 -- -- 86
2019-10-17 22:00:00 14.4 10 Sudoeste 17 Oeste 0 -- -- 82
2019-10-17 21:00:00 14.8 7 Sudoeste 14 Sudoeste 0 -- -- 77
2019-10-17 20:00:00 15.4 7 Sudoeste 18 Sudoeste 0 -- -- 73
2019-10-17 19:00:00 16.6 13 Sudoeste 26 Sudoeste 0 -- -- 68
2019-10-17 18:00:00 17.2 14 Oeste 31 Oeste 0 -- -- 66
2019-10-17 17:00:00 18 19 Oeste 40 Oeste 0 -- -- 60
2019-10-17 16:00:00 17 21 Oeste 39 Oeste 0 -- -- 68
2019-10-17 15:00:00 15.8 16 Oeste 30 Sudoeste 0 -- -- 75
2019-10-17 14:00:00 14.6 17 Oeste 28 Oeste 0 -- -- 86
2019-10-17 13:00:00 13.5 15 Sudoeste 26 Oeste 0 -- -- 88
2019-10-17 12:00:00 12.9 14 Sudoeste 34 Sudoeste 0.2 -- -- 93
2019-10-17 11:00:00 13.1 16 Sudoeste 30 Oeste 0 -- -- 88
2019-10-17 10:00:00 12.2 17 Sudoeste 31 Sudoeste 0.2 -- -- 91
2019-10-17 09:00:00 11 9 Sudoeste 23 Sudoeste 0.4 -- -- 94
2019-10-17 08:00:00 9.4 4 Sur 8 Sudoeste 0.6 -- -- 90
2019-10-17 07:00:00 9 6 Sudeste 12 Sudeste 0 -- -- 88
2019-10-17 06:00:00 8.7 10 Sudeste 14 Sudeste 0.4 -- -- 87
2019-10-17 05:00:00 7.2 5 Este 11 Sudeste 0 -- -- 86
2019-10-17 04:00:00 8.1 4 Nordeste 14 Este 0 -- -- 80
2019-10-17 03:00:00 8.2 6 Este 10 Sudeste 0 -- -- 81
2019-10-17 02:00:00 8.7 4 Nordeste 12 Sudeste 0 -- -- 77
2019-10-17 01:00:00 8.2 6 Sudeste 12 Sudoeste 0 -- -- 76
2019-10-17 00:00:00 9.4 4 Sudoeste 17 Sudoeste 0 -- -- 70
2019-10-16 23:00:00 9.9 6 Sudoeste 11 Sudoeste 0 -- -- 64
2019-10-16 22:00:00 11.3 6 Oeste 15 Sudoeste 0 -- -- 57
2019-10-16 21:00:00 12.2 7 Sur 10 Sur 0 -- -- 56
2019-10-16 20:00:00 13.7 3 Sudeste 12 Sudeste 0 -- -- 54
2019-10-16 19:00:00 16.4 6 Oeste 21 Oeste 0 -- -- 39
2019-10-16 18:00:00 17.4 13 Oeste 24 Oeste 0 -- -- 35
2019-10-16 17:00:00 17.5 10 Oeste 24 Oeste 0 -- -- 33
2019-10-16 16:00:00 16.4 15 Oeste 30 Oeste 0 -- -- 36
2019-10-16 15:00:00 15.5 18 Oeste 33 Oeste 0 -- -- 38
2019-10-16 14:00:00 14.2 9 Oeste 23 Oeste 0 -- -- 45
2019-10-16 13:00:00 12.1 8 Oeste 19 Oeste 0 -- -- 59
2019-10-16 12:00:00 10.9 15 Oeste 28 Oeste 0 -- -- 65
2019-10-16 11:00:00 9.9 15 Oeste 27 Oeste 0 -- -- 71
2019-10-16 10:00:00 8.8 11 Sudoeste 16 Sudoeste 0 -- -- 76
2019-10-16 09:00:00 5.6 5 Sur 10 Sudoeste 0 -- -- 82
2019-10-16 08:00:00 5.8 5 Sur 10 Sur 0 -- -- 79
2019-10-16 07:00:00 5.9 6 Sur 9 Sur 0 -- -- 79
2019-10-16 06:00:00 5.7 6 Sur 8 Sur 0 -- -- 76
2019-10-16 05:00:00 5.6 4 Sur 6 Sudoeste 0 -- -- 78
2019-10-16 04:00:00 6.8 5 Sur 7 Sudoeste 0 -- -- 71
2019-10-16 03:00:00 8.2 4 Sur 9 Sur 0 -- -- 66
2019-10-16 02:00:00 8.7 5 Sur 7 Sur 0 -- -- 66
2019-10-16 01:00:00 8.8 5 Sur 10 Sudoeste 0 -- -- 65
2019-10-16 00:00:00 8.2 5 Sur 10 Sur 0 -- -- 68
2019-10-15 23:00:00 7.8 7 Sur 11 Sur 0 -- -- 70
2019-10-15 22:00:00 7.6 7 Sur 10 Sur 0 -- -- 72
2019-10-15 21:00:00 7.3 5 Sudeste 8 Sudeste 0 -- -- 73
2019-10-15 20:00:00 9.1 5 Oeste 15 Oeste 0 -- -- 64
2019-10-15 19:00:00 10.8 10 Oeste 23 Oeste 0 -- -- 56
2019-10-15 18:00:00 11.7 13 Oeste 27 Oeste 0 -- -- 53
2019-10-15 17:00:00 11.4 13 Oeste 28 Oeste 0 -- -- 56
2019-10-15 16:00:00 11.1 14 Oeste 24 Oeste 0 -- -- 56
2019-10-15 15:00:00 10.9 18 Oeste 29 Sudoeste 0 -- -- 60
2019-10-15 14:00:00 9.2 17 Oeste 28 Oeste 0 -- -- 67
2019-10-15 13:00:00 8.4 12 Oeste 27 Oeste 0 -- -- 72
2019-10-15 12:00:00 7.5 17 Oeste 28 Oeste 0 -- -- 76
2019-10-15 11:00:00 6.1 14 Oeste 33 Oeste 0 -- -- 86
2019-10-15 10:00:00 5.2 17 Oeste 28 Sudoeste 0 -- -- 89
2019-10-15 09:00:00 4.7 15 Oeste 29 Oeste 0 -- -- 91
2019-10-15 08:00:00 4.6 17 Oeste 29 Oeste 0 -- -- 90
2019-10-15 07:00:00 4.5 14 Oeste 23 Oeste 0 -- -- 90
2019-10-15 06:00:00 3.9 10 Oeste 23 Oeste 0 -- -- 91
2019-10-15 05:00:00 4.5 15 Oeste 31 Sudoeste 0 -- -- 90
2019-10-15 04:00:00 4.8 18 Oeste 33 Sudoeste 0 -- -- 89
2019-10-15 03:00:00 5.1 17 Oeste 43 Oeste 0 -- -- 89
2019-10-15 02:00:00 5.3 19 Oeste 39 Oeste 0 -- -- 91
2019-10-15 01:00:00 5.5 15 Oeste 30 Oeste 0 -- -- 92
2019-10-15 00:00:00 5.3 14 Oeste 30 Sudoeste 0 -- -- 91
2019-10-14 23:00:00 5.8 18 Oeste 41 Oeste 0.2 -- -- 91
2019-10-14 22:00:00 6.7 16 Oeste 29 Oeste 0 -- -- 87
2019-10-14 21:00:00 7.1 13 Sudoeste 23 Sudoeste 0.2 -- -- 90
2019-10-14 20:00:00 7 14 Sudoeste 31 Sur 0.6 -- -- 87
2019-10-14 19:00:00 6.2 20 Sudoeste 46 Sudoeste 3.6 -- -- 88
2019-10-14 18:00:00 7.5 29 Oeste 60 Oeste 2.4 -- -- 89
2019-10-14 17:00:00 12.7 27 Oeste 44 Oeste 0 -- -- 60
2019-10-14 16:00:00 15 26 Oeste 41 Oeste 0 -- -- 50
2019-10-14 15:00:00 17.6 26 Oeste 48 Oeste 0 -- -- 37
2019-10-14 14:00:00 15.7 15 Oeste 28 Oeste 0 -- -- 59
2019-10-14 13:00:00 12.9 18 Oeste 39 Oeste 0 -- -- 76
2019-10-14 12:00:00 15.3 32 Oeste 59 Sur 0 -- -- 61
2019-10-14 11:00:00 17.1 33 Sur 55 Sur 0 -- -- 51
2019-10-14 10:00:00 16.2 35 Sur 56 Sur 0 -- -- 49
2019-10-14 09:00:00 16 28 Sur 44 Sur 0 -- -- 59
2019-10-14 08:00:00 15.5 22 Sudoeste 44 Sur 0 -- -- 59
2019-10-14 07:00:00 16.9 25 Sur 51 Sudoeste 0 -- -- 53
2019-10-14 06:00:00 17.8 19 Sur 35 Sur 0 -- -- 47
2019-10-14 05:00:00 16.6 11 Este 41 Sudeste 0 -- -- 52
2019-10-14 04:00:00 16.4 21 Sudeste 38 Sudeste 0 -- -- 59
2019-10-14 03:00:00 17.3 24 Sudeste 41 Sudeste 0 -- -- 54
2019-10-14 02:00:00 17.8 28 Sur 43 Sur 0 -- -- 49
2019-10-14 01:00:00 17.9 26 Sur 41 Sudeste 0 -- -- 48
2019-10-14 00:00:00 18.4 23 Sur 47 Sur 0 -- -- 47
2019-10-13 23:00:00 17.8 22 Sur 39 Sur 0 -- -- 48
2019-10-13 22:00:00 17.1 18 Sur 30 Sur 0 -- -- 49
2019-10-13 21:00:00 16.7 11 Sudoeste 36 Sur 0 -- -- 45
2019-10-13 20:00:00 17.6 30 Sur 46 Sur 0 -- -- 45
2019-10-13 19:00:00 19.2 25 Sur 47 Sur 0 -- -- 42
2019-10-13 18:00:00 20.3 31 Sur 47 Sur 0 -- -- 45
2019-10-13 17:00:00 22.2 30 Sur 46 Sur 0 -- -- 32
2019-10-13 16:00:00 22.6 28 Sur 46 Sur 0 -- -- 36
2019-10-13 15:00:00 22.2 26 Sur 45 Sur 0 -- -- 38
2019-10-13 14:00:00 21.3 28 Sur 41 Sudeste 0 -- -- 38
2019-10-13 13:00:00 19.4 27 Sudeste 45 Sur 0 -- -- 51
2019-10-13 12:00:00 19.2 26 Sudeste 37 Sur 0 -- -- 53
2019-10-13 11:00:00 19.7 15 Sur 35 Sur 0 -- -- 40
2019-10-13 10:00:00 17.1 25 Sur 37 Sur 0 -- -- 53
2019-10-13 09:00:00 14.3 16 Sudeste 30 Sudeste 0 -- -- 70
2019-10-13 08:00:00 14.7 21 Sur 35 Sur 0 -- -- 73
2019-10-13 07:00:00 14.7 18 Sudeste 31 Sur 0 -- -- 74
2019-10-13 06:00:00 15.4 22 Sur 37 Sur 0 -- -- 72
2019-10-13 05:00:00 15.7 12 Sur 42 Sur 0 -- -- 69
2019-10-13 04:00:00 16.3 34 Sur 49 Sur 0 -- -- 57
2019-10-13 03:00:00 16.2 29 Sudeste 47 Sudeste 0 -- -- 55
2019-10-13 02:00:00 16.4 17 Sur 43 Sudeste 0 -- -- 54
2019-10-13 01:00:00 16.9 27 Sudeste 55 Sur 0 -- -- 52
2019-10-13 00:00:00 17.1 36 Sur 54 Sur 0 -- -- 52
2019-10-12 23:00:00 16.9 28 Sudeste 51 Sudeste 0 -- -- 58
2019-10-12 22:00:00 18 24 Sur 34 Sudeste 0 -- -- 51
2019-10-12 21:00:00 16.2 12 Sudeste 48 Sudoeste 0 -- -- 64
2019-10-12 20:00:00 19.7 21 Sur 41 Sudeste 0 -- -- 53
2019-10-12 19:00:00 21 27 Sudeste 52 Sudeste 0 -- -- 48
2019-10-12 18:00:00 21.7 27 Sudeste 47 Sur 0 -- -- 47
2019-10-12 17:00:00 22.9 23 Sur 41 Sur 0 -- -- 41
2019-10-12 16:00:00 23.8 25 Sur 41 Sur 0 -- -- 38
2019-10-12 15:00:00 24.3 26 Sur 67 Sur 0 -- -- 38
2019-10-12 14:00:00 23.8 28 Sur 46 Sur 0 -- -- 37
2019-10-12 13:00:00 22.5 28 Sur 46 Sur 0 -- -- 39
2019-10-12 12:00:00 20.6 25 Sur 37 Sur 0 -- -- 45
2019-10-12 11:00:00 18.8 18 Sudeste 30 Sudeste 0 -- -- 59
2019-10-12 10:00:00 18.1 18 Sudeste 27 Sudeste 0 -- -- 60
2019-10-12 09:00:00 18.6 2 Sudoeste 26 Sur 0 -- -- 51
2019-10-12 08:00:00 19.3 18 Sur 35 Sur 0 -- -- 49
2019-10-12 07:00:00 19.7 25 Sur 38 Sur 0 -- -- 48
2019-10-12 06:00:00 20 21 Sur 31 Sur 0 -- -- 46
2019-10-12 05:00:00 19.8 18 Sur 31 Sur 0 -- -- 50
2019-10-12 04:00:00 20.2 20 Sur 37 Sur 0 -- -- 54
2019-10-12 03:00:00 20.2 22 Sur 32 Sur 0 -- -- 56
2019-10-12 02:00:00 19.2 9 Sudoeste 17 Sur 0 -- -- 63
2019-10-12 01:00:00 20.3 14 Sur 37 Sur 0 -- -- 56
2019-10-12 00:00:00 20.9 21 Sur 32 Sur 0 -- -- 51
2019-10-11 23:00:00 20.2 21 Sur 37 Sur 0 -- -- 57
2019-10-11 22:00:00 19.8 18 Sur 39 Sur 0 -- -- 59
2019-10-11 21:00:00 19.3 19 Sur 31 Sur 0 -- -- 64
2019-10-11 20:00:00 20.4 14 Sur 27 Sudeste 0 -- -- 59
2019-10-11 19:00:00 22.1 18 Sudeste 40 Sudeste 0 -- -- 54
2019-10-11 18:00:00 23.5 24 Sudeste 36 Sudeste 0 -- -- 51
2019-10-11 17:00:00 24.8 24 Sudeste 42 Sudeste 0 -- -- 47
2019-10-11 16:00:00 25.5 23 Sudeste 36 Sur 0 -- -- 42
2019-10-11 15:00:00 26.6 14 Sur 30 Sur 0 -- -- 38
2019-10-11 14:00:00 25.2 9 Sudoeste 19 Oeste 0 -- -- 38
2019-10-11 13:00:00 24.8 14 Oeste 26 Oeste 0 -- -- 40
2019-10-11 12:00:00 23.9 5 Oeste 17 Oeste 0 -- -- 44
2019-10-11 11:00:00 22.8 4 Oeste 10 Sudeste 0 -- -- 46
2019-10-11 10:00:00 19.9 5 Sudeste 12 Sudeste 0 -- -- 56
2019-10-11 09:00:00 15.6 10 Sudeste 12 Sudeste 0 -- -- 64
2019-10-11 08:00:00 14.6 7 Sudeste 10 Sudeste 0 -- -- 66
2019-10-11 07:00:00 15.1 6 Sudeste 9 Sudeste 0 -- -- 63
2019-10-11 06:00:00 15.2 4 Sudeste 6 Sudeste 0 -- -- 64
2019-10-11 05:00:00 15.6 3 Sudeste 11 Sur 0 -- -- 62
2019-10-11 04:00:00 16.4 9 Sudeste 12 Sur 0 -- -- 60
2019-10-11 03:00:00 16 8 Sur 16 Sur 0 -- -- 61
2019-10-11 02:00:00 14.3 12 Sudeste 14 Sudeste 0 -- -- 61
2019-10-11 01:00:00 13.8 6 Sudeste 10 Sudeste 0 -- -- 66
2019-10-11 00:00:00 15.3 8 Sudeste 11 Sudeste 0 -- -- 66
2019-10-10 23:00:00 15.8 8 Sudeste 12 Sur 0 -- -- 68
2019-10-10 22:00:00 16.4 7 Sudeste 14 Sudeste 0 -- -- 68
2019-10-10 21:00:00 17.3 11 Sudeste 14 Sudeste 0 -- -- 66
2019-10-10 20:00:00 19.9 9 Sudeste 14 Sudeste 0 -- -- 58
2019-10-10 19:00:00 23.4 6 Sudeste 12 Sudeste 0 -- -- 44
2019-10-10 18:00:00 23.5 6 Nordeste 15 Norte 0 -- -- 35
2019-10-10 17:00:00 24.1 8 Noroeste 19 Norte 0 -- -- 36
2019-10-10 16:00:00 23.7 6 Noroeste 18 Norte 0 -- -- 40
2019-10-10 15:00:00 23.2 8 Noroeste 30 Norte 0 -- -- 45
2019-10-10 14:00:00 22.3 10 Noroeste 19 Noroeste 0 -- -- 45
2019-10-10 13:00:00 20.6 8 Norte 16 Norte 0 -- -- 48
2019-10-10 12:00:00 19.7 2 Sur 7 Sur 0 -- -- 47
2019-10-10 11:00:00 15.9 4 Sur 8 Sur 0 -- -- 55
2019-10-10 10:00:00 11.5 3 Sudeste 8 Este 0 -- -- 73
2019-10-10 09:00:00 8 8 Este 24 Nordeste 0 -- -- 83
2019-10-10 08:00:00 9.3 6 Nordeste 13 Este 0 -- -- 74
2019-10-10 07:00:00 8.1 4 Sudeste 10 Sudeste 0 -- -- 78
2019-10-10 06:00:00 9.1 9 Este 13 Norte 0 -- -- 75
2019-10-10 05:00:00 8.6 4 Este 12 Este 0 -- -- 76
2019-10-10 04:00:00 9.5 7 Este 13 Nordeste 0 -- -- 70
2019-10-10 03:00:00 9.6 8 Sudeste 13 Sudeste 0 -- -- 71
2019-10-10 02:00:00 10.5 8 Sudeste 11 Sudeste 0 -- -- 70
2019-10-10 01:00:00 10.1 8 Sudeste 9 Sudeste 0 -- -- 73
2019-10-10 00:00:00 10.5 2 Este 8 Este 0 -- -- 70
2019-10-09 23:00:00 10.9 5 Sudeste 8 Este 0 -- -- 69
2019-10-09 22:00:00 13.1 5 Este 14 Nordeste 0 -- -- 61
2019-10-09 21:00:00 14.8 8 Nordeste 13 Nordeste 0 -- -- 56
2019-10-09 20:00:00 17.8 5 Norte 13 Noroeste 0 -- -- 45
2019-10-09 19:00:00 20.6 6 Norte 18 Noroeste 0 -- -- 42
2019-10-09 18:00:00 21.3 9 Norte 21 Norte 0 -- -- 41
2019-10-09 17:00:00 22 10 Noroeste 19 Noroeste 0 -- -- 40
2019-10-09 16:00:00 21.7 11 Noroeste 21 Oeste 0 -- -- 40
2019-10-09 15:00:00 20.9 11 Noroeste 18 Noroeste 0 -- -- 45
2019-10-09 14:00:00 19.9 10 Oeste 18 Oeste 0 -- -- 52
2019-10-09 13:00:00 18.3 8 Oeste 15 Noroeste 0 -- -- 62
2019-10-09 12:00:00 16.2 3 Oeste 12 Noroeste 0 -- -- 72
2019-10-09 11:00:00 15.1 6 Noroeste 15 Noroeste 0 -- -- 80
2019-10-09 10:00:00 14.3 8 Oeste 14 Noroeste 0 -- -- 84
2019-10-09 09:00:00 14.5 0 Calma 10 Oeste 0 -- -- 82
2019-10-09 08:00:00 14 7 Oeste 12 Oeste 0 -- -- 84
2019-10-09 07:00:00 13.6 4 Sur 26 Oeste 0 -- -- 82
2019-10-09 06:00:00 14.9 5 Sudoeste 13 Sudoeste 0 -- -- 74
2019-10-09 05:00:00 15.1 4 Sur 12 Sudeste 0 -- -- 71
2019-10-09 04:00:00 16 8 Sur 14 Oeste 0 -- -- 66
2019-10-09 03:00:00 15.9 4 Sudoeste 12 Oeste 0 -- -- 65
2019-10-09 02:00:00 16.4 6 Sur 10 Sudoeste 0 -- -- 62
2019-10-09 01:00:00 17.8 8 Sudoeste 14 Sur 0 -- -- 58
2019-10-09 00:00:00 18.2 12 Sudoeste 17 Sudoeste 0 -- -- 54
2019-10-08 23:00:00 17.1 4 Sur 10 Sudeste 0 -- -- 52
2019-10-08 22:00:00 17.9 5 Sudeste 8 Sur 0 -- -- 49
2019-10-08 21:00:00 19.2 7 Sudeste 10 Sudeste 0 -- -- 46
2019-10-08 20:00:00 23.5 4 Oeste 18 Oeste 0 -- -- 35
2019-10-08 19:00:00 25.9 15 Oeste 26 Oeste 0 -- -- 32
2019-10-08 18:00:00 26.9 17 Oeste 28 Oeste 0 -- -- 30
2019-10-08 17:00:00 27.2 15 Oeste 31 Oeste 0 -- -- 31
2019-10-08 16:00:00 27.4 14 Oeste 32 Oeste 0 -- -- 31
2019-10-08 15:00:00 26.9 13 Oeste 26 Sudoeste 0 -- -- 31
2019-10-08 14:00:00 25.9 12 Noroeste 21 Oeste 0 -- -- 32
2019-10-08 13:00:00 24.3 7 Noroeste 18 Noroeste 0 -- -- 35
2019-10-08 12:00:00 23.3 5 Oeste 10 Oeste 0 -- -- 38
2019-10-08 11:00:00 21.4 3 Oeste 7 Noroeste 0 -- -- 44
2019-10-08 10:00:00 18.8 3 Sudeste 10 Sudeste 0 -- -- 51
2019-10-08 09:00:00 13.7 9 Sudeste 12 Sudeste 0 -- -- 64
2019-10-08 08:00:00 13.2 10 Sudeste 12 Sudeste 0 -- -- 65
2019-10-08 07:00:00 13.5 10 Sudeste 15 Sudeste 0 -- -- 62
2019-10-08 06:00:00 13 11 Este 14 Este 0 -- -- 66
2019-10-08 05:00:00 13.1 9 Sudeste 15 Sudeste 0 -- -- 67
2019-10-08 04:00:00 13.2 10 Sudeste 13 Sudeste 0 -- -- 63
2019-10-08 03:00:00 13.3 10 Este 14 Sudeste 0 -- -- 61
2019-10-08 02:00:00 12.4 8 Sudeste 13 Este 0 -- -- 61
2019-10-08 01:00:00 12.7 6 Sudeste 13 Sudeste 0 -- -- 62
2019-10-08 00:00:00 14 7 Sudeste 13 Sudeste 0 -- -- 59
2019-10-07 23:00:00 15.3 8 Este 15 Este 0 -- -- 53
2019-10-07 22:00:00 15.2 10 Sudeste 12 Sudeste 0 -- -- 52
2019-10-07 21:00:00 16.4 8 Sudeste 11 Sudeste 0 -- -- 49
2019-10-07 20:00:00 20.8 4 Noroeste 13 Noroeste 0 -- -- 38
2019-10-07 19:00:00 23.1 9 Noroeste 21 Noroeste 0 -- -- 32
2019-10-07 18:00:00 23.9 11 Oeste 22 Oeste 0 -- -- 33
2019-10-07 17:00:00 24.2 9 Noroeste 21 Noroeste 0 -- -- 32
2019-10-07 16:00:00 23.7 13 Noroeste 20 Noroeste 0 -- -- 34
2019-10-07 15:00:00 22.9 8 Norte 20 Oeste 0 -- -- 33
2019-10-07 14:00:00 21.3 10 Norte 22 Norte 0 -- -- 34
2019-10-07 13:00:00 20.8 11 Norte 18 Norte 0 -- -- 31
2019-10-07 12:00:00 19.3 4 Noroeste 9 Norte 0 -- -- 33
2019-10-07 11:00:00 17.3 2 Oeste 6 Norte 0 -- -- 48
2019-10-07 10:00:00 14.3 0 Calma 5 Nordeste 0 -- -- 60
2019-10-07 09:00:00 10.3 3 Noroeste 8 Este 0 -- -- 70
2019-10-07 08:00:00 10.4 7 Este 9 Este 0 -- -- 69
2019-10-07 07:00:00 10.1 4 Este 10 Este 0 -- -- 69
2019-10-07 06:00:00 10.4 6 Este 10 Oeste 0 -- -- 67
2019-10-07 05:00:00 11.8 0 Calma 9 Noroeste 0 -- -- 62
2019-10-07 04:00:00 11.8 2 Noroeste 6 Noroeste 0 -- -- 61
2019-10-07 03:00:00 13 0 Calma 8 Sudeste 0 -- -- 57
2019-10-07 02:00:00 12.6 8 Sudeste 10 Sudeste 0 -- -- 64
2019-10-07 01:00:00 12.4 7 Sudeste 11 Sudeste 0 -- -- 64
2019-10-07 00:00:00 12.1 9 Sudeste 11 Sudeste 0 -- -- 61
2019-10-06 23:00:00 12.3 5 Sudeste 9 Sudeste 0 -- -- 58
2019-10-06 22:00:00 13.8 3 Sur 6 Sudeste 0 -- -- 52
2019-10-06 21:00:00 16.8 5 Noroeste 13 Noroeste 0 -- -- 42
2019-10-06 20:00:00 18.8 10 Noroeste 20 Oeste 0 -- -- 39
2019-10-06 19:00:00 21.7 17 Oeste 28 Oeste 0 -- -- 36
2019-10-06 18:00:00 22.6 13 Oeste 29 Noroeste 0 -- -- 33
2019-10-06 17:00:00 22.3 17 Oeste 26 Oeste 0 -- -- 31
2019-10-06 16:00:00 22.2 12 Oeste 22 Oeste 0 -- -- 31
2019-10-06 15:00:00 21.3 13 Noroeste 26 Noroeste 0 -- -- 37
2019-10-06 14:00:00 20.5 13 Oeste 25 Oeste 0 -- -- 41
2019-10-06 13:00:00 18.9 10 Oeste 22 Noroeste 0 -- -- 51
2019-10-06 12:00:00 17.4 10 Noroeste 19 Noroeste 0 -- -- 56
2019-10-06 11:00:00 15.9 7 Oeste 12 Oeste 0 -- -- 57
2019-10-06 10:00:00 13.3 0 Calma 10 Sudeste 0 -- -- 69
2019-10-06 09:00:00 9.5 2 Oeste 9 Sudeste 0 -- -- 78
2019-10-06 08:00:00 8.6 3 Sur 6 Oeste 0 -- -- 79
2019-10-06 07:00:00 9.9 2 Oeste 11 Sudeste 0 -- -- 76
2019-10-06 06:00:00 10.5 0 Calma 6 Oeste 0 -- -- 69
2019-10-06 05:00:00 10 7 Sur 10 Sur 0 -- -- 72
2019-10-06 04:00:00 10.5 7 Sudeste 9 Sudeste 0 -- -- 70
2019-10-06 03:00:00 11.8 3 Sudeste 13 Sudoeste 0 -- -- 66
2019-10-06 02:00:00 13.3 8 Sudoeste 13 Sudoeste 0 -- -- 60
2019-10-06 01:00:00 12.4 5 Sur 8 Sudeste 0 -- -- 65
2019-10-06 00:00:00 13.5 7 Sudeste 11 Sudeste 0 -- -- 61
2019-10-05 23:00:00 14.4 9 Sudeste 10 Sudeste 0 -- -- 55
2019-10-05 22:00:00 14.8 7 Sudeste 10 Sudeste 0 -- -- 53
2019-10-05 21:00:00 16.6 5 Sur 10 Sudoeste 0 -- -- 48
2019-10-05 20:00:00 20.7 6 Oeste 20 Oeste 0 -- -- 39
2019-10-05 19:00:00 23.4 12 Oeste 22 Oeste 0 -- -- 31
2019-10-05 18:00:00 24 16 Oeste 27 Oeste 0 -- -- 29
2019-10-05 17:00:00 24.3 15 Oeste 26 Oeste 0 -- -- 31
2019-10-05 16:00:00 23.7 15 Noroeste 24 Noroeste 0 -- -- 34
2019-10-05 15:00:00 22.7 9 Oeste 19 Oeste 0 -- -- 43
2019-10-05 14:00:00 21.2 6 Sudoeste 13 Oeste 0 -- -- 49
2019-10-05 13:00:00 19.7 4 Norte 14 Oeste 0 -- -- 54
2019-10-05 12:00:00 19 6 Noroeste 12 Noroeste 0 -- -- 57
2019-10-05 11:00:00 17.1 3 Noroeste 6 Noroeste 0 -- -- 64
2019-10-05 10:00:00 15.4 3 Sur 8 Sudeste 0 -- -- 71
2019-10-05 09:00:00 10.6 7 Sudeste 10 Sudeste 0 -- -- 83
2019-10-05 08:00:00 9.5 3 Sudeste 6 Sudeste 0 -- -- 85
2019-10-05 07:00:00 11.2 5 Sudeste 10 Sudeste 0 -- -- 81
2019-10-05 06:00:00 11.9 8 Sudeste 13 Sudeste 0 -- -- 79
2019-10-05 05:00:00 11.6 12 Sudeste 13 Sudeste 0 -- -- 81
2019-10-05 04:00:00 12 10 Sudeste 13 Sudeste 0 -- -- 81
2019-10-05 03:00:00 12.5 7 Sudeste 12 Sudeste 0 -- -- 81
2019-10-05 02:00:00 12.3 10 Sudeste 12 Sudeste 0 -- -- 83
2019-10-05 01:00:00 13.1 9 Sudeste 11 Sudeste 0 -- -- 82
2019-10-05 00:00:00 14.2 5 Sudeste 8 Sudeste 0 -- -- 77
2019-10-04 23:00:00 15.1 7 Sudeste 10 Sudeste 0 -- -- 74
2019-10-04 22:00:00 14.7 6 Sudeste 10 Sur 0 -- -- 74
2019-10-04 21:00:00 16.6 5 Sur 12 Noroeste 0 -- -- 65
2019-10-04 20:00:00 19.7 5 Oeste 15 Oeste 0 -- -- 55
2019-10-04 19:00:00 21.7 10 Oeste 24 Oeste 0 -- -- 49
2019-10-04 18:00:00 22.1 16 Oeste 31 Oeste 0 -- -- 47
2019-10-04 17:00:00 22.3 17 Oeste 33 Oeste 0 -- -- 45
2019-10-04 16:00:00 22.2 16 Oeste 32 Oeste 0 -- -- 46
2019-10-04 15:00:00 21.7 17 Oeste 28 Oeste 0 -- -- 51
2019-10-04 14:00:00 20.5 13 Noroeste 24 Oeste 0 -- -- 55
2019-10-04 13:00:00 20 10 Noroeste 19 Noroeste 0 -- -- 56
2019-10-04 12:00:00 18.5 5 Oeste 10 Oeste 0 -- -- 55
2019-10-04 11:00:00 16.1 7 Sudoeste 12 Sudoeste 0 -- -- 65
2019-10-04 10:00:00 15 3 Sudeste 8 Sudeste 0 -- -- 62
2019-10-04 09:00:00 10.3 3 Nordeste 9 Norte 0 -- -- 73
2019-10-04 08:00:00 10.2 5 Este 13 Sudeste 0 -- -- 71
2019-10-04 07:00:00 10.4 6 Sudeste 13 Sudeste 0 -- -- 72
2019-10-04 06:00:00 11.6 6 Sudeste 9 Sudeste 0 -- -- 68
2019-10-04 05:00:00 11.5 6 Sur 11 Sur 0 -- -- 66
2019-10-04 04:00:00 12.1 4 Sudeste 12 Sudoeste 0 -- -- 61
2019-10-04 03:00:00 13.9 7 Sur 19 Sudoeste 0 -- -- 51
2019-10-04 02:00:00 13.1 4 Sur 12 Sudeste 0 -- -- 52
2019-10-04 01:00:00 12.8 12 Sudeste 13 Sudeste 0 -- -- 53
2019-10-04 00:00:00 12.4 9 Sudeste 12 Sudeste 0 -- -- 54
2019-10-03 23:00:00 12.5 9 Sudeste 10 Sudeste 0 -- -- 54
2019-10-03 22:00:00 13.8 5 Sudeste 9 Sudeste 0 -- -- 50
2019-10-03 21:00:00 14.7 6 Sudeste 11 Oeste 0 -- -- 47
2019-10-03 20:00:00 19.2 6 Oeste 20 Sudoeste 0 -- -- 35
2019-10-03 19:00:00 21.5 11 Oeste 23 Oeste 0 -- -- 32
2019-10-03 18:00:00 21.9 16 Oeste 26 Oeste 0 -- -- 31
2019-10-03 17:00:00 22 16 Oeste 29 Oeste 0 -- -- 33
2019-10-03 16:00:00 21.3 17 Oeste 30 Oeste 0 -- -- 33
2019-10-03 15:00:00 20.6 15 Oeste 28 Noroeste 0 -- -- 36
2019-10-03 14:00:00 19.4 6 Sudoeste 19 Oeste 0 -- -- 39
2019-10-03 13:00:00 18.2 5 Oeste 18 Oeste 0 -- -- 43
2019-10-03 12:00:00 16.5 7 Oeste 16 Oeste 0 -- -- 50
2019-10-03 11:00:00 15 4 Oeste 9 Oeste 0 -- -- 53
2019-10-03 10:00:00 13.2 2 Sudeste 6 Sudeste 0 -- -- 60
2019-10-03 09:00:00 8.8 3 Sudeste 9 Sudeste 0 -- -- 72
2019-10-03 08:00:00 9.1 8 Sudeste 12 Sudeste 0 -- -- 70
2019-10-03 07:00:00 8.9 9 Sudeste 11 Sudeste 0 -- -- 72
2019-10-03 06:00:00 9 8 Sudeste 11 Sudeste 0 -- -- 71
2019-10-03 05:00:00 9.3 9 Sudeste 11 Sudeste 0 -- -- 70
2019-10-03 04:00:00 9 10 Sudeste 12 Sudeste 0 -- -- 73
2019-10-03 03:00:00 8.5 9 Sudeste 12 Sudeste 0 -- -- 77
2019-10-03 02:00:00 7.9 9 Sudeste 12 Sudeste 0 -- -- 80
2019-10-03 01:00:00 8.5 9 Sudeste 13 Sudeste 0 -- -- 76
2019-10-03 00:00:00 8.9 10 Sudeste 12 Sudeste 0 -- -- 73
2019-10-02 23:00:00 10.6 5 Este 16 Este 0 -- -- 65
2019-10-02 22:00:00 10.3 6 Sudeste 9 Sudeste 0 -- -- 67
2019-10-02 21:00:00 11.9 0 Calma 7 Noroeste 0 -- -- 61
2019-10-02 20:00:00 15.4 5 Noroeste 13 Noroeste 0 -- -- 48
2019-10-02 19:00:00 17.5 9 Noroeste 14 Norte 0 -- -- 44
2019-10-02 18:00:00 17.7 10 Noroeste 20 Noroeste 0 -- -- 42
2019-10-02 17:00:00 17.6 8 Norte 20 Oeste 0 -- -- 43
2019-10-02 16:00:00 17.2 9 Noroeste 23 Norte 0 -- -- 45
2019-10-02 15:00:00 15.7 12 Norte 23 Oeste 0 -- -- 51
2019-10-02 14:00:00 14.6 10 Noroeste 20 Noroeste 0 -- -- 56
2019-10-02 13:00:00 13.1 6 Oeste 19 Oeste 0 -- -- 61
2019-10-02 12:00:00 10.9 9 Oeste 16 Oeste 0 -- -- 77
2019-10-02 11:00:00 9.3 9 Noroeste 15 Oeste 0 -- -- 85
2019-10-02 10:00:00 8.7 8 Oeste 21 Oeste 0 -- -- 89
2019-10-02 09:00:00 8.4 11 Oeste 26 Oeste 0 -- -- 91
2019-10-02 08:00:00 8.6 16 Oeste 28 Oeste 0 -- -- 89
2019-10-02 07:00:00 8.9 12 Oeste 23 Oeste 0 -- -- 90
2019-10-02 06:00:00 9.4 13 Oeste 25 Oeste 0 -- -- 87
2019-10-02 05:00:00 9.9 10 Oeste 24 Oeste 0 -- -- 85
2019-10-02 04:00:00 10.5 13 Oeste 24 Oeste 0 -- -- 81
2019-10-02 03:00:00 11.1 11 Oeste 21 Oeste 0 -- -- 77
2019-10-02 02:00:00 11.7 10 Oeste 26 Oeste 0 -- -- 73
2019-10-02 01:00:00 12.9 13 Oeste 23 Oeste 0 -- -- 67
2019-10-02 00:00:00 13.6 13 Oeste 23 Oeste 0 -- -- 64
2019-10-01 23:00:00 14.1 12 Oeste 19 Oeste 0 -- -- 63
2019-10-01 22:00:00 14.5 10 Oeste 16 Oeste 0 -- -- 63
2019-10-01 21:00:00 15.6 9 Oeste 19 Oeste 0 -- -- 59
2019-10-01 20:00:00 17.4 13 Oeste 36 Sudoeste 0 -- -- 54
2019-10-01 19:00:00 19.2 24 Oeste 42 Oeste 0 -- -- 49
2019-10-01 18:00:00 20.1 23 Oeste 38 Noroeste 0 -- -- 51
2019-10-01 17:00:00 21.1 21 Oeste 37 Oeste 0 -- -- 50
2019-10-01 16:00:00 19.9 24 Oeste 38 Oeste 0 -- -- 52
2019-10-01 15:00:00 18.6 18 Oeste 33 Oeste 0 -- -- 58
2019-10-01 14:00:00 15.9 18 Sudoeste 32 Oeste 0 -- -- 77
2019-10-01 13:00:00 13.6 11 Oeste 21 Oeste 0 -- -- 92
2019-10-01 12:00:00 13.2 12 Oeste 23 Oeste 0 -- -- 91
2019-10-01 11:00:00 14.5 14 Oeste 23 Oeste 0 -- -- 85
2019-10-01 10:00:00 15.6 7 Oeste 12 Sudoeste 0 -- -- 73
2019-10-01 09:00:00 14 5 Sur 16 Sur 0 -- -- 72
2019-10-01 08:00:00 13.3 8 Oeste 22 Oeste 0 -- -- 64
2019-10-01 07:00:00 13.8 5 Norte 11 Sudeste 0 -- -- 53
2019-10-01 06:00:00 14.8 8 Sudeste 12 Sudeste 0 -- -- 53
2019-10-01 05:00:00 14.3 8 Sudeste 13 Sur 0 -- -- 48
2019-10-01 04:00:00 14.3 8 Sur 10 Sur 0 -- -- 45
2019-10-01 03:00:00 15.9 5 Sudeste 14 Sur 0 -- -- 39
2019-10-01 02:00:00 16.1 9 Sur 12 Sur 0 -- -- 37
2019-10-01 01:00:00 16 8 Sudeste 10 Sudeste 0 -- -- 42
2019-10-01 00:00:00 15.9 7 Sur 12 Sudeste 0 -- -- 49
2019-09-30 23:00:00 16.9 9 Sudeste 15 Sudeste 0 -- -- 47
2019-09-30 22:00:00 17.4 7 Sudeste 11 Sudeste 0 -- -- 43
2019-09-30 21:00:00 18.9 9 Sudeste 10 Sudeste 0 -- -- 40
2019-09-30 20:00:00 23 3 Nordeste 15 Oeste 0 -- -- 32
2019-09-30 19:00:00 26 11 Oeste 22 Oeste 0 -- -- 24
2019-09-30 18:00:00 26.7 12 Oeste 27 Oeste 0 -- -- 23
2019-09-30 17:00:00 26.8 15 Noroeste 30 Oeste 0 -- -- 24
2019-09-30 16:00:00 26.7 13 Oeste 27 Oeste 0 -- -- 21
2019-09-30 15:00:00 26.4 12 Oeste 22 Oeste 0 -- -- 21
2019-09-30 14:00:00 23.9 7 Noroeste 13 Sudoeste 0 -- -- 31
2019-09-30 13:00:00 22.8 6 Noroeste 13 Noroeste 0 -- -- 36
2019-09-30 12:00:00 21.6 4 Nordeste 11 Norte 0 -- -- 41
2019-09-30 11:00:00 19.9 3 Sudeste 6 Nordeste 0 -- -- 45
2019-09-30 10:00:00 17 0 Calma 9 Sudeste 0 -- -- 49
2019-09-30 09:00:00 11.3 5 Sudeste 10 Este 0 -- -- 71
2019-09-30 08:00:00 9.5 7 Sudeste 8 Sudeste 0 -- -- 74
2019-09-30 07:00:00 11.8 7 Este 13 Sudeste 0 -- -- 65
2019-09-30 06:00:00 11.9 4 Sudeste 10 Sudeste 0 -- -- 65
2019-09-30 05:00:00 13.4 8 Sudeste 12 Sudeste 0 -- -- 58
2019-09-30 04:00:00 12.9 6 Sudeste 9 Sudeste 0 -- -- 59
2019-09-30 03:00:00 13.5 6 Sur 12 Sudeste 0 -- -- 56
2019-09-30 02:00:00 14.8 7 Sudeste 9 Sudeste 0 -- -- 46
2019-09-30 01:00:00 15.1 6 Sudeste 9 Sudeste 0 -- -- 41
2019-09-30 00:00:00 15.9 6 Sudeste 12 Sudeste 0 -- -- 37
2019-09-29 23:00:00 15.8 8 Sudeste 11 Sudeste 0 -- -- 40
2019-09-29 22:00:00 16.5 8 Sudeste 17 Sur 0 -- -- 40
2019-09-29 21:00:00 18.6 12 Sur 15 Sur 0 -- -- 34
2019-09-29 20:00:00 22.8 5 Sudoeste 21 Oeste 0 -- -- 26
2019-09-29 19:00:00 25 12 Oeste 23 Oeste 0 -- -- 23
2019-09-29 18:00:00 25.4 14 Sudoeste 31 Sudoeste 0 -- -- 22
2019-09-29 17:00:00 25.7 16 Oeste 32 Oeste 0 -- -- 23
2019-09-29 16:00:00 25.4 15 Oeste 32 Oeste 0 -- -- 25
2019-09-29 15:00:00 24.6 18 Oeste 35 Oeste 0 -- -- 23
2019-09-29 14:00:00 23.8 19 Oeste 35 Oeste 0 -- -- 28
2019-09-29 13:00:00 23.6 18 Oeste 30 Oeste 0 -- -- 31
2019-09-29 12:00:00 22.8 19 Oeste 30 Oeste 0 -- -- 30
2019-09-29 11:00:00 21.8 13 Sudoeste 23 Sudoeste 0 -- -- 34
2019-09-29 10:00:00 18.5 3 Sur 5 Sur 0 -- -- 41
2019-09-29 09:00:00 13.3 0 Calma 8 Norte 0 -- -- 54
2019-09-29 08:00:00 13.1 5 Sur 10 Sur 0 -- -- 50
2019-09-29 07:00:00 13.3 9 Sur 15 Sur 0 -- -- 47
2019-09-29 06:00:00 13.5 7 Sudeste 14 Sudoeste 0 -- -- 49
2019-09-29 05:00:00 13.1 5 Sur 12 Sudoeste 0 -- -- 48
2019-09-29 04:00:00 14.3 4 Sudeste 11 Sudeste 0 -- -- 45
2019-09-29 03:00:00 14.5 9 Sudeste 13 Sudeste 0 -- -- 46
2019-09-29 02:00:00 14.2 9 Sudeste 13 Sudeste 0 -- -- 48
2019-09-29 01:00:00 14.5 10 Este 15 Sudeste 0 -- -- 44
2019-09-29 00:00:00 14.6 12 Sudeste 14 Sudeste 0 -- -- 44
2019-09-28 23:00:00 15.2 8 Sudeste 9 Sudeste 0 -- -- 46
2019-09-28 22:00:00 16.4 4 Sudeste 10 Sudeste 0 -- -- 45
2019-09-28 21:00:00 18.3 7 Sudeste 11 Sudeste 0 -- -- 46
2019-09-28 20:00:00 23.1 4 Sur 11 Noroeste 0 -- -- 31
2019-09-28 19:00:00 25.3 9 Oeste 21 Noroeste 0 -- -- 24
2019-09-28 18:00:00 25.7 11 Oeste 23 Oeste 0 -- -- 24
2019-09-28 17:00:00 25.8 13 Noroeste 23 Oeste 0 -- -- 23
2019-09-28 16:00:00 25.3 13 Oeste 23 Oeste 0 -- -- 24
2019-09-28 15:00:00 24.3 6 Oeste 18 Noroeste 0 -- -- 32
2019-09-28 14:00:00 22.3 5 Nordeste 15 Oeste 0 -- -- 42
2019-09-28 13:00:00 20.8 4 Norte 12 Oeste 0 -- -- 43
2019-09-28 12:00:00 19.4 3 Oeste 7 Norte 0 -- -- 55
2019-09-28 11:00:00 17.6 3 Noroeste 8 Norte 0 -- -- 66
2019-09-28 10:00:00 15.4 3 Sudeste 9 Sudeste 0 -- -- 76
2019-09-28 09:00:00 10.7 8 Sudeste 11 Este 0 -- -- 88
2019-09-28 08:00:00 9 6 Este 8 Este 0 -- -- 88
2019-09-28 07:00:00 9.1 2 Nordeste 6 Sudeste 0 -- -- 89
2019-09-28 06:00:00 10.4 2 Nordeste 13 Sudeste 0 -- -- 86
2019-09-28 05:00:00 10.2 7 Sudeste 10 Sudeste 0 -- -- 86
2019-09-28 04:00:00 11.7 8 Sudeste 12 Sudeste 0 -- -- 81
2019-09-28 03:00:00 12.3 8 Sudeste 11 Sudeste 0 -- -- 77
2019-09-28 02:00:00 13 5 Sudeste 13 Sur 0 -- -- 71
2019-09-28 01:00:00 14 7 Sudeste 15 Sudoeste 0 -- -- 63
2019-09-28 00:00:00 14.8 4 Sur 14 Sur 0 -- -- 50
2019-09-27 23:00:00 15.1 9 Sur 15 Sudeste 0 -- -- 45
2019-09-27 22:00:00 15.5 8 Sur 13 Sur 0 -- -- 42
2019-09-27 21:00:00 15.9 7 Sudeste 9 Sudeste 0 -- -- 41
2019-09-27 20:00:00 20.7 5 Oeste 24 Oeste 0 -- -- 29
2019-09-27 19:00:00 22.8 13 Oeste 24 Oeste 0 -- -- 24
2019-09-27 18:00:00 23.4 13 Oeste 27 Oeste 0 -- -- 26
2019-09-27 17:00:00 23.2 17 Oeste 33 Noroeste 0 -- -- 30
2019-09-27 16:00:00 23.4 17 Oeste 30 Oeste 0 -- -- 26
2019-09-27 15:00:00 23 15 Noroeste 26 Sudoeste 0 -- -- 30
2019-09-27 14:00:00 21.9 15 Oeste 25 Oeste 0 -- -- 30
2019-09-27 13:00:00 20.8 10 Oeste 18 Sudoeste 0 -- -- 33
2019-09-27 12:00:00 19.1 9 Oeste 15 Sudoeste 0 -- -- 41
2019-09-27 11:00:00 17.2 5 Oeste 9 Oeste 0 -- -- 50
2019-09-27 10:00:00 15.1 3 Oeste 9 Sudeste 0 -- -- 50
2019-09-27 09:00:00 10.5 8 Sudeste 12 Sudeste 0 -- -- 66
2019-09-27 08:00:00 11.3 3 Sudoeste 9 Sudeste 0 -- -- 59
2019-09-27 07:00:00 10.5 3 Sudeste 9 Noroeste 0 -- -- 61
2019-09-27 06:00:00 12 5 Sur 12 Sudeste 0 -- -- 55
2019-09-27 05:00:00 12.5 3 Sudoeste 11 Sudeste 0 -- -- 53
2019-09-27 04:00:00 12.3 7 Sudeste 10 Sur 0 -- -- 56
2019-09-27 03:00:00 13.5 5 Sur 12 Sur 0 -- -- 50
2019-09-27 02:00:00 13.2 5 Sur 8 Sur 0 -- -- 54
2019-09-27 01:00:00 15 7 Sur 12 Sur 0 -- -- 48
2019-09-27 00:00:00 15 10 Sudeste 12 Sur 0 -- -- 53
2019-09-26 23:00:00 15.7 4 Sudeste 11 Sudeste 0 -- -- 53
2019-09-26 22:00:00 16.5 8 Sudeste 10 Sudeste 0 -- -- 55
2019-09-26 21:00:00 17.9 5 Sur 8 Sur 0 -- -- 51
2019-09-26 20:00:00 22 5 Oeste 19 Oeste 0 -- -- 39
2019-09-26 19:00:00 23.8 13 Oeste 27 Noroeste 0 -- -- 37
2019-09-26 18:00:00 24.2 18 Oeste 29 Oeste 0 -- -- 36
2019-09-26 17:00:00 24.8 16 Oeste 30 Oeste 0 -- -- 34
2019-09-26 16:00:00 24.6 20 Oeste 32 Oeste 0 -- -- 34
2019-09-26 15:00:00 23.8 19 Oeste 30 Oeste 0 -- -- 35
2019-09-26 14:00:00 23 13 Oeste 24 Oeste 0 -- -- 37
2019-09-26 13:00:00 21.2 10 Oeste 15 Oeste 0 -- -- 47
2019-09-26 12:00:00 18.9 6 Oeste 12 Oeste 0 -- -- 56
2019-09-26 11:00:00 17 3 Sur 7 Sur 0 -- -- 60
2019-09-26 10:00:00 13.9 2 Sudoeste 7 Norte 0 -- -- 70
2019-09-26 09:00:00 10.8 6 Sudeste 10 Sudeste 0 -- -- 80
2019-09-26 08:00:00 9.5 5 Sudeste 7 Sudeste 0 -- -- 82
2019-09-26 07:00:00 10.4 3 Sudoeste 8 Sur 0 -- -- 77
2019-09-26 06:00:00 9.8 0 Calma 9 Oeste 0 -- -- 81
2019-09-26 05:00:00 10.9 6 Sudeste 10 Sudeste 0 -- -- 76
2019-09-26 04:00:00 11.2 9 Sudeste 10 Sudeste 0 -- -- 76
2019-09-26 03:00:00 11.3 10 Sudeste 13 Sudeste 0 -- -- 77
2019-09-26 02:00:00 11.2 9 Sudeste 10 Sudeste 0 -- -- 77
2019-09-26 01:00:00 11.3 9 Sudeste 11 Sudeste 0 -- -- 78
2019-09-26 00:00:00 12 8 Sudeste 9 Sudeste 0 -- -- 75
2019-09-25 23:00:00 12.2 7 Sudeste 11 Sudeste 0 -- -- 75
2019-09-25 22:00:00 13.3 5 Sudeste 7 Sudeste 0 -- -- 72
2019-09-25 21:00:00 14.7 2 Sudeste 8 Sudeste 0 -- -- 66
2019-09-25 20:00:00 17 3 Oeste 13 Oeste 0 -- -- 54
2019-09-25 19:00:00 18 9 Oeste 17 Oeste 0 -- -- 49
2019-09-25 18:00:00 18.9 10 Noroeste 20 Noroeste 0 -- -- 48
2019-09-25 17:00:00 18.8 13 Noroeste 25 Oeste 0 -- -- 49
2019-09-25 16:00:00 18.5 8 Noroeste 32 Oeste 0 -- -- 50
2019-09-25 15:00:00 17 9 Noroeste 23 Noroeste 0 -- -- 57
2019-09-25 14:00:00 15.4 10 Oeste 24 Oeste 0 -- -- 58
2019-09-25 13:00:00 14.3 11 Oeste 27 Oeste 0 -- -- 63
2019-09-25 12:00:00 12.9 13 Oeste 23 Oeste 0 -- -- 71
2019-09-25 11:00:00 11.5 13 Oeste 18 Oeste 0 -- -- 77
2019-09-25 10:00:00 10.2 12 Oeste 17 Oeste 0 -- -- 88
2019-09-25 09:00:00 9.3 6 Oeste 15 Oeste 0 -- -- 92
2019-09-25 08:00:00 9.4 7 Oeste 18 Oeste 0 -- -- 93
2019-09-25 07:00:00 10 12 Oeste 21 Oeste 0 -- -- 89
2019-09-25 06:00:00 10.9 12 Oeste 21 Oeste 0 -- -- 88
2019-09-25 05:00:00 11.4 13 Sudoeste 22 Oeste 0 -- -- 86
2019-09-25 04:00:00 11.8 12 Oeste 22 Oeste 0 -- -- 84
2019-09-25 03:00:00 12.3 13 Oeste 25 Oeste 0 -- -- 83
2019-09-25 02:00:00 13.3 13 Oeste 27 Oeste 0 -- -- 85
2019-09-25 01:00:00 14 13 Oeste 24 Oeste 0 -- -- 88
2019-09-25 00:00:00 14.7 13 Oeste 24 Oeste 0 -- -- 88
2019-09-24 23:00:00 15.4 12 Sudoeste 25 Sudoeste 0 -- -- 88
2019-09-24 22:00:00 15.6 12 Sudoeste 23 Sudoeste 0 -- -- 89
2019-09-24 21:00:00 15.7 10 Sudoeste 22 Oeste 0 -- -- 91
2019-09-24 20:00:00 16 9 Sur 21 Oeste 0.4 -- -- 93
2019-09-24 19:00:00 16.4 5 Sudoeste 13 Sudeste 0.2 -- -- 91
2019-09-24 18:00:00 16.2 8 Sudeste 14 Sudeste 0.6 -- -- 90
2019-09-24 17:00:00 16.2 8 Sudoeste 19 Sudoeste 0.2 -- -- 86
2019-09-24 16:00:00 18.5 12 Oeste 33 Sudoeste 0 -- -- 67
2019-09-24 15:00:00 19.4 21 Oeste 36 Sudoeste 0 -- -- 62
2019-09-24 14:00:00 18.4 17 Sudoeste 34 Sudoeste 0 -- -- 67
2019-09-24 13:00:00 18 15 Sudoeste 31 Oeste 0 -- -- 58
2019-09-24 12:00:00 17.6 19 Oeste 31 Oeste 0 -- -- 46
2019-09-24 11:00:00 18 14 Oeste 30 Sudoeste 0 -- -- 46
2019-09-24 10:00:00 15.9 4 Norte 9 Sur 0 -- -- 58
2019-09-24 09:00:00 12 6 Sur 9 Sur 0 -- -- 73
2019-09-24 08:00:00 11.4 5 Sur 12 Sur 0 -- -- 72
2019-09-24 07:00:00 11.8 6 Sur 12 Sur 0 -- -- 71
2019-09-24 06:00:00 12 9 Sur 12 Sur 0 -- -- 70
2019-09-24 05:00:00 13.4 5 Sur 11 Sudoeste 0 -- -- 65
2019-09-24 04:00:00 14.1 5 Oeste 13 Sudoeste 0 -- -- 62
2019-09-24 03:00:00 13.7 5 Sudoeste 11 Sudoeste 0 -- -- 63
2019-09-24 02:00:00 14 3 Sudoeste 9 Sudoeste 0 -- -- 64
2019-09-24 01:00:00 14.4 8 Sudoeste 12 Sudoeste 0 -- -- 61
2019-09-24 00:00:00 13.1 6 Sudeste 9 Sudeste 0 -- -- 68
2019-09-23 23:00:00 13.6 5 Sur 9 Sudeste 0 -- -- 67
2019-09-23 22:00:00 14.3 4 Sudeste 9 Sudeste 0 -- -- 66
2019-09-23 21:00:00 16.7 7 Sudoeste 9 Sudoeste 0 -- -- 53
2019-09-23 20:00:00 19.2 5 Sudoeste 21 Oeste 0 -- -- 45
2019-09-23 19:00:00 20.3 11 Oeste 23 Oeste 0 -- -- 41
2019-09-23 18:00:00 20.8 12 Oeste 26 Oeste 0 -- -- 37
2019-09-23 17:00:00 20.9 15 Oeste 31 Oeste 0 -- -- 40
2019-09-23 16:00:00 20.4 15 Oeste 28 Oeste 0 -- -- 39
2019-09-23 15:00:00 19.5 9 Oeste 22 Oeste 0 -- -- 34
2019-09-23 14:00:00 18.6 9 Noroeste 18 Oeste 0 -- -- 46
2019-09-23 13:00:00 16.9 5 Noroeste 16 Noroeste 0 -- -- 60
2019-09-23 12:00:00 15.5 4 Noroeste 9 Oeste 0 -- -- 58
2019-09-23 11:00:00 14.3 4 Sur 8 Sudeste 0 -- -- 60
2019-09-23 10:00:00 11.9 0 Calma 7 Sudeste 0 -- -- 71
2019-09-23 09:00:00 8.5 5 Sudeste 9 Sudeste 0 -- -- 82
2019-09-23 08:00:00 7.4 5 Sudeste 8 Sudeste 0 -- -- 83
2019-09-23 07:00:00 7.7 9 Sudeste 10 Sudeste 0 -- -- 81
2019-09-23 06:00:00 8.1 6 Sudeste 7 Sudeste 0 -- -- 79
2019-09-23 05:00:00 8.5 3 Sudeste 6 Sur 0 -- -- 77
2019-09-23 04:00:00 9.2 4 Sudeste 12 Sur 0 -- -- 74
2019-09-23 03:00:00 9.5 5 Sudeste 8 Sudeste 0 -- -- 78
2019-09-23 02:00:00 10.9 7 Sur 12 Sur 0 -- -- 74
2019-09-23 01:00:00 10.3 6 Sudeste 9 Sudeste 0 -- -- 77
2019-09-23 00:00:00 10.7 5 Sudeste 12 Sudeste 0 -- -- 75
2019-09-22 23:00:00 11.2 6 Sudeste 9 Sudeste 0 -- -- 74
2019-09-22 22:00:00 11.7 7 Sudeste 10 Sur 0 -- -- 71
2019-09-22 21:00:00 13 5 Sur 15 Oeste 0 -- -- 66
2019-09-22 20:00:00 15.4 9 Oeste 30 Oeste 0 -- -- 55
2019-09-22 19:00:00 16.7 16 Oeste 30 Oeste 0 -- -- 51
2019-09-22 18:00:00 17.1 17 Oeste 28 Oeste 0 -- -- 53
2019-09-22 17:00:00 16.7 17 Noroeste 30 Oeste 0 -- -- 59
2019-09-22 16:00:00 16.5 14 Oeste 27 Oeste 0 -- -- 55
2019-09-22 15:00:00 16.5 17 Oeste 32 Oeste 0 -- -- 57
2019-09-22 14:00:00 14.6 17 Oeste 31 Oeste 0.2 -- -- 66
2019-09-22 13:00:00 13.5 14 Oeste 28 Oeste 0 -- -- 75
2019-09-22 12:00:00 12.6 14 Oeste 23 Oeste 0 -- -- 85
2019-09-22 11:00:00 11.8 10 Oeste 21 Oeste 0 -- -- 88
2019-09-22 10:00:00 10.9 6 Oeste 10 Oeste 0 -- -- 95
2019-09-22 09:00:00 10.2 4 Sur 7 Sudoeste 0 -- -- 95
2019-09-22 08:00:00 9.8 4 Sudoeste 12 Sur 0.2 -- -- 96
2019-09-22 07:00:00 9.8 6 Sudoeste 25 Oeste 0.2 -- -- 97
2019-09-22 06:00:00 10.5 18 Oeste 28 Oeste 0.8 -- -- 95
2019-09-22 05:00:00 12.7 20 Oeste 44 Oeste 0 -- -- 91
2019-09-22 04:00:00 16.8 19 Sur 35 Sur 0 -- -- 70
2019-09-22 03:00:00 16.4 18 Sur 41 Sur 0 -- -- 75
2019-09-22 02:00:00 16.8 22 Sur 39 Sur 0 -- -- 72
2019-09-22 01:00:00 16.3 14 Sur 26 Sur 0 -- -- 72
2019-09-22 00:00:00 16.1 9 Sur 19 Sur 0 -- -- 70
2019-09-21 23:00:00 16.3 13 Sur 19 Sur 0 -- -- 69
2019-09-21 22:00:00 16.5 14 Sur 22 Sur 0 -- -- 71
2019-09-21 21:00:00 16.8 5 Sudoeste 36 Sur 0 -- -- 72
2019-09-21 20:00:00 16.9 20 Sur 36 Sur 0 -- -- 72
2019-09-21 19:00:00 17.1 22 Sur 37 Sur 0 -- -- 71
2019-09-21 18:00:00 17.2 23 Sur 37 Sur 0 -- -- 70
2019-09-21 17:00:00 17.6 13 Sur 39 Sur 0 -- -- 70
2019-09-21 16:00:00 17.6 20 Sur 30 Sur 0.2 -- -- 67
2019-09-21 15:00:00 17.8 18 Sur 27 Sur 0 -- -- 66
2019-09-21 14:00:00 18.8 14 Sur 27 Sur 0 -- -- 60
2019-09-21 13:00:00 18.6 12 Sur 20 Sur 0 -- -- 59
2019-09-21 12:00:00 17.7 14 Sur 30 Sur 0 -- -- 63
2019-09-21 11:00:00 17.8 18 Sur 28 Sur 0 -- -- 62
2019-09-21 10:00:00 16.4 14 Sur 23 Sur 0 -- -- 68
2019-09-21 09:00:00 13.9 12 Sur 17 Sur 0 -- -- 77
2019-09-21 08:00:00 12.7 8 Sudeste 14 Sudeste 0 -- -- 80
2019-09-21 07:00:00 12.5 5 Sudeste 22 Sur 0 -- -- 82
2019-09-21 06:00:00 13.6 3 Sudoeste 17 Sur 0 -- -- 80
2019-09-21 05:00:00 14.4 12 Sudeste 26 Sur 0 -- -- 80
2019-09-21 04:00:00 14 10 Sudeste 33 Sur 0.2 -- -- 82
2019-09-21 03:00:00 13.5 12 Sudeste 34 Sudeste 1 -- -- 84
2019-09-21 02:00:00 15.5 17 Sur 32 Sudeste 0 -- -- 78
2019-09-21 01:00:00 15.1 13 Sur 20 Sur 0 -- -- 81
2019-09-21 00:00:00 14.1 9 Este 25 Este 0.4 -- -- 84
2019-09-20 23:00:00 14 26 Sudeste 42 Este 0.2 -- -- 84
2019-09-20 22:00:00 13.3 10 Sudeste 42 Sur 2.6 -- -- 85
2019-09-20 21:00:00 16.9 39 Sur 58 Sur 0 -- -- 64
2019-09-20 20:00:00 19.5 22 Sudeste 41 Sudeste 0 -- -- 66
2019-09-20 19:00:00 20.9 26 Sudeste 41 Sudeste 0 -- -- 61
2019-09-20 18:00:00 21.9 17 Sudeste 35 Sudeste 0 -- -- 58
2019-09-20 17:00:00 22.7 18 Sur 36 Sur 0 -- -- 56
2019-09-20 16:00:00 21.7 18 Sudeste 38 Sur 0 -- -- 60
2019-09-20 15:00:00 20.3 21 Sudeste 39 Sudeste 0 -- -- 64
2019-09-20 14:00:00 21 26 Sur 41 Sur 0 -- -- 59
2019-09-20 13:00:00 19.7 24 Sur 44 Sur 0 -- -- 63
2019-09-20 12:00:00 20.2 28 Sur 47 Sur 0 -- -- 61
2019-09-20 11:00:00 18.9 22 Sudeste 36 Sudeste 0 -- -- 67
2019-09-20 10:00:00 17.5 18 Sur 37 Sur 0 -- -- 73
2019-09-20 09:00:00 17.3 19 Sur 36 Sur 0 -- -- 72
2019-09-20 08:00:00 17 20 Sur 35 Sur 0 -- -- 72
2019-09-20 07:00:00 17.1 20 Sur 39 Sur 0 -- -- 70
2019-09-20 06:00:00 17.4 21 Sur 36 Sudeste 0 -- -- 69
2019-09-20 05:00:00 17.8 20 Sur 33 Sudeste 0 -- -- 67
2019-09-20 04:00:00 18.1 18 Sudeste 41 Sur 0 -- -- 66
2019-09-20 03:00:00 17.8 18 Sur 31 Sudeste 0 -- -- 68
2019-09-20 02:00:00 18.3 20 Sudeste 38 Sur 0 -- -- 63
2019-09-20 01:00:00 17.9 17 Sudeste 27 Sudeste 0 -- -- 61
2019-09-20 00:00:00 16.9 10 Sudeste 16 Sudeste 0 -- -- 67
2019-09-19 23:00:00 16.6 7 Sudeste 11 Sudeste 0 -- -- 73
2019-09-19 22:00:00 17.4 3 Sudeste 10 Sur 0 -- -- 69
2019-09-19 21:00:00 17.3 9 Sudeste 19 Sur 0 -- -- 72
2019-09-19 20:00:00 17.5 8 Sudeste 18 Sudeste 0 -- -- 78
2019-09-19 19:00:00 16.4 12 Sudeste 35 Sur 1.8 -- -- 82
2019-09-19 18:00:00 20.6 12 Sudeste 30 Sudeste 0 -- -- 59
2019-09-19 17:00:00 22.7 7 Sudeste 23 Oeste 0 -- -- 48
2019-09-19 16:00:00 23.2 5 Noroeste 16 Oeste 0 -- -- 42
2019-09-19 15:00:00 23.4 6 Oeste 18 Noroeste 0 -- -- 46
2019-09-19 14:00:00 23.1 7 Norte 18 Noroeste 0 -- -- 47
2019-09-19 13:00:00 22.2 6 Noroeste 14 Noroeste 0 -- -- 48
2019-09-19 12:00:00 20.8 5 Noroeste 10 Oeste 0 -- -- 52
2019-09-19 11:00:00 19.7 3 Nordeste 6 Norte 0 -- -- 56
2019-09-19 10:00:00 17.4 0 Calma 8 Sudeste 0 -- -- 67
2019-09-19 09:00:00 13.3 6 Sudeste 9 Sudeste 0 -- -- 81
2019-09-19 08:00:00 12.5 2 Norte 10 Sudeste 0 -- -- 81
2019-09-19 07:00:00 12.8 5 Sudeste 11 Sudeste 0 -- -- 80
2019-09-19 06:00:00 13.3 10 Sudeste 12 Sudeste 0 -- -- 78
2019-09-19 05:00:00 13.2 9 Sudeste 12 Este 0 -- -- 79
2019-09-19 04:00:00 12.7 6 Sudeste 7 Sudeste 0 -- -- 83
2019-09-19 03:00:00 13.6 7 Sudeste 13 Sudeste 0 -- -- 79
2019-09-19 02:00:00 13.7 9 Sudeste 11 Sudeste 0 -- -- 80
2019-09-19 01:00:00 13.9 6 Sudeste 11 Este 0 -- -- 79
2019-09-19 00:00:00 14.8 10 Sudeste 12 Sudeste 0 -- -- 76
2019-09-18 23:00:00 15.3 8 Sudeste 11 Sudeste 0 -- -- 76
2019-09-18 22:00:00 16.6 8 Sudeste 12 Sudeste 0 -- -- 72
2019-09-18 21:00:00 18.6 4 Norte 12 Norte 0 -- -- 59
2019-09-18 20:00:00 20.8 7 Norte 16 Noroeste 0 -- -- 56
2019-09-18 19:00:00 23.1 10 Noroeste 22 Noroeste 0 -- -- 47
2019-09-18 18:00:00 23.3 9 Oeste 22 Oeste 0 -- -- 43
2019-09-18 17:00:00 23.3 11 Oeste 24 Oeste 0 -- -- 44
2019-09-18 16:00:00 22.5 13 Oeste 25 Oeste 0 -- -- 49
2019-09-18 15:00:00 22.2 12 Oeste 22 Sudoeste 0 -- -- 45
2019-09-18 14:00:00 20.5 11 Oeste 18 Oeste 0 -- -- 55
2019-09-18 13:00:00 19.1 5 Oeste 14 Sudoeste 0 -- -- 60
2019-09-18 12:00:00 16.8 4 Oeste 9 Sudoeste 0 -- -- 70
2019-09-18 11:00:00 15.5 0 Calma 4 Oeste 0 -- -- 82
2019-09-18 10:00:00 14 0 Calma 3 Sudeste 0 -- -- 92
2019-09-18 09:00:00 13 2 Sudeste 4 Sudeste 0 -- -- 94
2019-09-18 08:00:00 12.7 3 Nordeste 5 Norte 0 -- -- 94
2019-09-18 07:00:00 12.8 2 Nordeste 12 Sudoeste 0 -- -- 92
2019-09-18 06:00:00 13 8 Oeste 22 Noroeste 0 -- -- 90
2019-09-18 05:00:00 13.2 5 Este 11 Nordeste 0 -- -- 89
2019-09-18 04:00:00 12.5 7 Sudeste 12 Este 0 -- -- 89
2019-09-18 03:00:00 13 0 Calma 12 Este 0 -- -- 92
2019-09-18 02:00:00 13.4 9 Este 18 Nordeste 0 -- -- 91
2019-09-18 01:00:00 14.4 5 Sur 14 Sur 0.2 -- -- 91
2019-09-18 00:00:00 13.9 10 Sur 22 Nordeste 5 -- -- 92